Time;durP1;ratioP1;P1;durP2;ratioP2;P2;SDS_P1;SDS_P2;PMS_P1;PMS_P2;Temp;Humidity;BMP_temperature;BMP_pressure;BME280_temperature;BME280_humidity;BME280_pressure;Samples;Min_cycle;Max_cycle;Signal;HPM_P1;HPM_P2
2022/10/09 00:02:24;;;;;;;1999.90;999.90;;;;;;;10.46;100.00;95397.84;5056509;28;20204;-58
2022/10/09 00:04:49;;;;;;;1999.90;999.90;;;;;;;10.49;100.00;95397.06;5056337;28;20202;-59
2022/10/09 00:07:15;;;;;;;1999.90;999.90;;;;;;;10.52;100.00;95388.06;5056090;28;20175;-58
2022/10/09 00:09:40;;;;;;;1999.90;999.90;;;;;;;10.53;100.00;95386.88;5056198;28;20181;-58
2022/10/09 00:12:05;;;;;;;1999.90;999.90;;;;;;;10.53;100.00;95389.59;5056192;28;20178;-58
2022/10/09 00:14:31;;;;;;;1999.90;999.90;;;;;;;10.48;100.00;95390.81;5056566;28;20216;-58
2022/10/09 00:16:56;;;;;;;1999.90;999.90;;;;;;;10.47;100.00;95383.00;5056335;28;20197;-58
2022/10/09 00:19:24;;;;;;;1999.90;999.90;;;;;;;10.42;100.00;95383.44;5055911;28;20177;-64
2022/10/09 00:21:50;;;;;;;1999.90;999.90;;;;;;;10.36;100.00;95382.31;5056472;28;20178;-66
2022/10/09 00:24:15;;;;;;;1999.90;999.90;;;;;;;10.35;100.00;95375.31;5056148;28;20174;-66
2022/10/09 00:26:40;;;;;;;1999.90;999.90;;;;;;;10.23;100.00;95370.34;5055675;28;20174;-66
2022/10/09 00:29:05;;;;;;;1999.90;999.90;;;;;;;10.21;100.00;95369.97;5055815;28;20180;-66
2022/10/09 00:31:31;;;;;;;1999.90;999.90;;;;;;;10.18;100.00;95362.56;5055683;28;20253;-66
2022/10/09 00:33:56;;;;;;;1999.90;999.90;;;;;;;10.15;100.00;95355.97;5056165;28;20178;-66
2022/10/09 00:36:23;;;;;;;1999.90;999.90;;;;;;;10.13;100.00;95363.00;5055526;28;20198;-67
2022/10/09 00:38:49;;;;;;;1999.90;999.90;;;;;;;10.07;100.00;95359.94;5055961;28;20209;-64
2022/10/09 00:41:20;;;;;;;1999.90;999.90;;;;;;;10.06;100.00;95361.88;5055568;28;20170;-70
2022/10/09 00:43:56;;;;;;;1999.90;999.90;;;;;;;10.04;100.00;95350.56;5056136;28;20178;-70
2022/10/09 00:46:59;;;;;;;1999.90;999.90;;;;;;;10.00;100.00;95344.34;5054976;28;20223;-71
2022/10/09 00:49:31;;;;;;;1999.90;999.90;;;;;;;9.97;100.00;95345.16;5033112;28;20227;-70
2022/10/09 00:52:04;;;;;;;1999.90;999.90;;;;;;;9.91;100.00;95335.06;5055306;28;20189;-70
2022/10/09 00:54:34;;;;;;;1999.90;999.90;;;;;;;9.94;100.00;95345.94;5055461;28;20182;-60
2022/10/09 00:56:59;;;;;;;1999.90;999.90;;;;;;;9.90;100.00;95337.00;5055186;28;20220;-66
2022/10/09 00:59:26;;;;;;;1999.90;999.90;;;;;;;9.93;100.00;95338.94;5054742;28;20182;-67
2022/10/09 01:01:51;;;;;;;1999.90;999.90;;;;;;;9.89;100.00;95327.28;5055300;28;20206;-66
2022/10/09 01:04:16;;;;;;;1999.90;999.90;;;;;;;9.87;100.00;95332.34;5055289;28;20225;-66
2022/10/09 01:07:00;;;;;;;1999.90;999.90;;;;;;;9.84;100.00;95330.41;5055039;28;20205;-66
2022/10/09 01:09:45;;;;;;;1999.90;999.90;;;;;;;9.80;100.00;95329.66;5055473;28;20169;-66
2022/10/09 01:12:32;;;;;;;1999.90;999.90;;;;;;;9.72;100.00;95332.84;5055520;28;20186;-66
2022/10/09 01:15:10;;;;;;;1999.90;999.90;;;;;;;9.74;100.00;95325.03;5055590;28;20174;-61
2022/10/09 01:17:55;;;;;;;1999.90;999.90;;;;;;;9.69;100.00;95328.22;5054961;28;20214;-59
2022/10/09 01:21:03;;;;;;;1999.90;999.90;;;;;;;9.65;100.00;95320.03;5055099;28;20223;-59
2022/10/09 01:23:40;;;;;;;1999.90;999.90;;;;;;;9.65;100.00;95320.03;4998414;28;20266;-59
2022/10/09 01:26:11;;;;;;;1999.90;999.90;;;;;;;9.60;100.00;95320.47;5049359;28;20211;-58
2022/10/09 01:28:40;;;;;;;1999.90;999.90;;;;;;;9.55;100.00;95318.13;5055224;28;20174;-58
2022/10/09 01:31:08;;;;;;;1999.90;999.90;;;;;;;9.50;100.00;95313.09;5054841;28;20181;-58
2022/10/09 01:33:34;;;;;;;1999.90;999.90;;;;;;;9.48;100.00;95311.97;5054893;28;20176;-60
2022/10/09 01:36:01;;;;;;;1999.90;999.90;;;;;;;9.44;100.00;95311.97;5055067;28;20200;-59
2022/10/09 01:38:28;;;;;;;1999.90;999.90;;;;;;;9.40;100.00;95311.22;5054400;28;20220;-59
2022/10/09 01:40:55;;;;;;;1999.90;999.90;;;;;;;9.33;100.00;95305.78;5054434;28;20180;-58
2022/10/09 01:43:20;;;;;;;1999.90;999.90;;;;;;;9.27;100.00;95306.63;5054530;28;20186;-58
2022/10/09 01:45:47;;;;;;;1999.90;999.90;;;;;;;9.26;100.00;95305.81;5054165;28;20271;-58
2022/10/09 01:48:23;;;;;;;1999.90;999.90;;;;;;;9.20;100.00;95299.25;5054554;28;20186;-58
2022/10/09 01:50:55;;;;;;;1999.90;999.90;;;;;;;9.21;100.00;95292.63;5054832;28;20188;-64
2022/10/09 01:53:23;;;;;;;1999.90;999.90;;;;;;;9.18;100.00;95293.41;5054897;28;20271;-68
2022/10/09 01:56:00;;;;;;;1999.90;999.90;;;;;;;9.17;100.00;95275.53;5053893;28;20182;-68
2022/10/09 01:58:43;;;;;;;1999.90;999.90;;;;;;;9.16;100.00;95278.63;5054053;28;20292;-68
2022/10/09 02:01:16;;;;;;;1999.90;999.90;;;;;;;9.14;100.00;95272.84;5054356;28;20181;-69
2022/10/09 02:03:45;;;;;;;1999.90;999.90;;;;;;;9.12;100.00;95259.59;5054185;28;20287;-68
2022/10/09 02:06:13;;;;;;;1999.90;999.90;;;;;;;9.09;100.00;95256.88;5054108;28;20181;-68
2022/10/09 02:08:40;;;;;;;1999.90;999.90;;;;;;;9.10;100.00;95248.31;5054009;28;20227;-58
2022/10/09 02:11:06;;;;;;;1999.90;999.90;;;;;;;9.13;100.00;95246.75;5052741;28;20174;-58
2022/10/09 02:13:34;;;;;;;1999.90;999.90;;;;;;;9.06;100.00;95242.13;5054466;28;20177;-66
2022/10/09 02:16:04;;;;;;;1999.90;999.90;;;;;;;9.05;100.00;95239.78;5053741;28;20252;-66
2022/10/09 02:18:39;;;;;;;1999.90;999.90;;;;;;;9.02;100.00;95232.41;5053551;28;20239;-67
2022/10/09 02:21:12;;;;;;;1999.90;999.90;;;;;;;8.98;100.00;95218.81;5053910;28;20181;-66
2022/10/09 02:23:40;;;;;;;1999.90;999.90;;;;;;;8.98;100.00;95207.91;5053593;28;20170;-65
2022/10/09 02:26:06;;;;;;;1999.90;999.90;;;;;;;8.95;100.00;95211.44;5053675;28;20631;-66
2022/10/09 02:28:31;;;;;;;1999.90;999.90;;;;;;;8.97;100.00;95205.59;5053663;28;20193;-67
2022/10/09 02:31:14;;;;;;;1999.90;999.90;;;;;;;8.96;100.00;95204.81;5053696;28;20181;-60
2022/10/09 02:33:40;;;;;;;1999.90;999.90;;;;;;;8.95;100.00;95197.81;5054094;28;20192;-59
2022/10/09 02:36:05;;;;;;;1999.90;999.90;;;;;;;8.94;100.00;95196.28;5053325;28;20174;-60
2022/10/09 02:38:30;;;;;;;1999.90;999.90;;;;;;;8.93;100.00;95191.97;5054042;28;20626;-60
2022/10/09 02:40:58;;;;;;;1999.90;999.90;;;;;;;8.88;100.00;95192.41;5053818;28;20174;-59
2022/10/09 02:43:23;;;;;;;1999.90;999.90;;;;;;;8.84;100.00;95199.81;5053703;28;20176;-61
2022/10/09 02:45:49;;;;;;;1999.90;999.90;;;;;;;8.82;100.00;95199.44;5053564;28;20311;-60
2022/10/09 02:48:14;;;;;;;1999.90;999.90;;;;;;;8.82;100.00;95193.97;5053880;28;20180;-63
2022/10/09 02:50:39;;;;;;;1999.90;999.90;;;;;;;8.83;100.00;95187.38;5053264;28;20272;-63
2022/10/09 02:53:05;;;;;;;1999.90;999.90;;;;;;;8.82;100.00;95185.81;5053484;28;20253;-63
2022/10/09 02:55:30;;;;;;;1999.90;999.90;;;;;;;8.82;100.00;95183.09;5052974;28;20172;-63
2022/10/09 02:57:55;;;;;;;1999.90;999.90;;;;;;;8.79;100.00;95183.91;5052957;28;20208;-63
2022/10/09 03:00:21;;;;;;;1999.90;999.90;;;;;;;8.77;100.00;95188.16;5053040;28;20631;-63
2022/10/09 03:02:46;;;;;;;1999.90;999.90;;;;;;;8.78;100.00;95178.84;5053340;28;20179;-63
2022/10/09 03:05:11;;;;;;;1999.90;999.90;;;;;;;8.74;100.00;95175.38;5053488;28;20292;-59
2022/10/09 03:07:37;;;;;;;1999.90;999.90;;;;;;;8.74;100.00;95173.41;5053804;28;20185;-63
2022/10/09 03:10:02;;;;;;;1999.90;999.90;;;;;;;8.70;100.00;95167.22;5052903;28;20173;-64
2022/10/09 03:12:27;;;;;;;1999.90;999.90;;;;;;;8.69;100.00;95170.31;5053223;28;20178;-63
2022/10/09 03:14:53;;;;;;;1999.90;999.90;;;;;;;8.60;100.00;95165.31;5053833;28;20269;-64
2022/10/09 03:17:18;;;;;;;1999.90;999.90;;;;;;;8.61;100.00;95166.88;5053261;28;20209;-63
2022/10/09 03:19:43;;;;;;;1999.90;999.90;;;;;;;8.56;100.00;95164.56;5053095;28;20184;-63
2022/10/09 03:22:09;;;;;;;1999.90;999.90;;;;;;;8.49;100.00;95159.13;5055945;28;20209;-64
2022/10/09 03:24:34;;;;;;;1999.90;999.90;;;;;;;8.52;100.00;95157.59;5057051;28;20174;-59
2022/10/09 03:26:59;;;;;;;1999.90;999.90;;;;;;;8.50;100.00;95149.81;5056802;28;20172;-67
2022/10/09 03:29:25;;;;;;;1999.90;999.90;;;;;;;8.53;100.00;95154.44;5056653;28;20228;-68
2022/10/09 03:31:50;;;;;;;1999.90;999.90;;;;;;;8.54;100.00;95150.59;5057409;28;20214;-70
2022/10/09 03:34:15;;;;;;;1999.90;999.90;;;;;;;8.52;100.00;95147.47;5056826;28;20173;-69
2022/10/09 03:36:41;;;;;;;1999.90;999.90;;;;;;;8.49;100.00;95158.38;5056829;28;20202;-68
2022/10/09 03:39:07;;;;;;;1999.90;999.90;;;;;;;8.43;100.00;95160.75;5057240;28;20177;-69
2022/10/09 03:41:32;;;;;;;1999.90;999.90;;;;;;;8.44;100.00;95158.78;5056792;28;20274;-67
2022/10/09 03:43:58;;;;;;;1999.90;999.90;;;;;;;8.37;100.00;95161.50;5056548;28;20185;-60
2022/10/09 03:46:23;;;;;;;1999.90;999.90;;;;;;;8.38;100.00;95158.41;5056560;28;20239;-60
2022/10/09 03:48:48;;;;;;;1999.90;999.90;;;;;;;8.38;100.00;95152.22;5056539;28;20169;-60
2022/10/09 03:51:14;;;;;;;1999.90;999.90;;;;;;;8.37;100.00;95148.69;5056568;28;20180;-60
2022/10/09 03:53:39;;;;;;;1999.90;999.90;;;;;;;8.37;100.00;95143.25;5056601;28;20178;-60
2022/10/09 03:56:05;;;;;;;1999.90;999.90;;;;;;;8.36;100.00;95144.44;5057151;28;20187;-59
2022/10/09 03:58:30;;;;;;;1999.90;999.90;;;;;;;8.35;100.00;95142.91;5056478;28;20302;-60
2022/10/09 04:00:55;;;;;;;1999.90;999.90;;;;;;;8.37;100.00;95145.19;5056190;28;20177;-69
2022/10/09 04:03:21;;;;;;;1999.90;999.90;;;;;;;8.33;100.00;95147.94;5056310;28;20210;-68
2022/10/09 04:05:46;;;;;;;1999.90;999.90;;;;;;;8.31;100.00;95142.09;5057334;28;20184;-68
2022/10/09 04:08:12;;;;;;;1999.90;999.90;;;;;;;8.28;100.00;95153.00;5056757;28;20177;-69
2022/10/09 04:10:37;;;;;;;1999.90;999.90;;;;;;;8.26;100.00;95150.69;5056108;28;20176;-69
2022/10/09 04:13:03;;;;;;;1999.90;999.90;;;;;;;8.26;100.00;95147.19;5056152;28;20177;-68
2022/10/09 04:15:28;;;;;;;1999.90;999.90;;;;;;;8.23;100.00;95146.03;5056680;28;20184;-68
2022/10/09 04:17:54;;;;;;;1999.90;999.90;;;;;;;8.23;100.00;95145.28;5055733;28;20208;-67
2022/10/09 04:20:20;;;;;;;1999.90;999.90;;;;;;;8.21;100.00;95142.94;5055810;28;20185;-66
2022/10/09 04:22:45;;;;;;;1999.90;999.90;;;;;;;8.18;100.00;95137.47;5056538;28;20177;-66
2022/10/09 04:25:11;;;;;;;1999.90;999.90;;;;;;;8.14;100.00;95145.66;5055984;28;20546;-66
2022/10/09 04:27:36;;;;;;;1999.90;999.90;;;;;;;8.13;100.00;95146.81;5055976;28;20259;-66
2022/10/09 04:30:03;;;;;;;1999.90;999.90;;;;;;;8.11;100.00;95149.16;5055974;28;20233;-66
2022/10/09 04:32:28;;;;;;;1999.90;999.90;;;;;;;8.09;100.00;95151.47;5054846;28;20180;-67
2022/10/09 04:34:54;;;;;;;1999.90;999.90;;;;;;;8.08;100.00;95158.09;5054988;28;20209;-66
2022/10/09 04:37:19;;;;;;;1999.90;999.90;;;;;;;8.01;100.00;95151.91;5056116;28;20253;-61
2022/10/09 04:39:44;;;;;;;1999.90;999.90;;;;;;;8.02;100.00;95150.72;5056026;28;20220;-65
2022/10/09 04:42:10;;;;;;;1999.90;999.90;;;;;;;8.03;100.00;95147.63;5055552;28;20234;-65
2022/10/09 04:44:35;;;;;;;1999.90;999.90;;;;;;;8.00;100.00;95147.63;5055023;28;20270;-65
2022/10/09 04:47:00;;;;;;;1999.90;999.90;;;;;;;7.97;100.00;95149.19;5055225;28;20274;-65
2022/10/09 04:49:26;;;;;;;1999.90;999.90;;;;;;;7.98;100.00;95163.56;5055551;28;20176;-66
2022/10/09 04:51:51;;;;;;;1999.90;999.90;;;;;;;7.98;100.00;95160.84;5055421;28;20177;-65
2022/10/09 04:54:16;;;;;;;1999.90;999.90;;;;;;;7.94;100.00;95160.84;5055462;28;20174;-53
2022/10/09 04:56:42;;;;;;;1999.90;999.90;;;;;;;7.94;100.00;95155.41;5054961;28;20288;-67
2022/10/09 04:59:07;;;;;;;1999.90;999.90;;;;;;;7.91;100.00;95156.22;5055436;28;20176;-64
2022/10/09 05:01:33;;;;;;;1999.90;999.90;;;;;;;7.81;100.00;95148.84;5054762;28;20226;-63
2022/10/09 05:03:58;;;;;;;1999.90;999.90;;;;;;;7.78;100.00;95156.97;5055175;28;20225;-63
2022/10/09 05:06:24;;;;;;;1999.90;999.90;;;;;;;7.76;100.00;95165.53;5055134;28;20168;-63
2022/10/09 05:08:50;;;;;;;1999.90;999.90;;;;;;;7.77;100.00;95167.09;5055745;28;20182;-63
2022/10/09 05:11:18;;;;;;;1999.90;999.90;;;;;;;7.77;100.00;95155.44;5055508;28;20187;-64
2022/10/09 05:13:50;;;;;;;1999.90;999.90;;;;;;;7.73;100.00;95160.91;5054966;28;20172;-67
2022/10/09 05:16:19;;;;;;;1999.90;999.90;;;;;;;7.73;100.00;95152.75;5054924;28;20164;-67
2022/10/09 05:18:47;;;;;;;1999.90;999.90;;;;;;;7.75;100.00;95153.09;5054931;28;20191;-67
2022/10/09 05:21:13;;;;;;;1999.90;999.90;;;;;;;7.74;100.00;95165.16;5054860;28;20242;-66
2022/10/09 05:23:38;;;;;;;1999.90;999.90;;;;;;;7.72;100.00;95158.56;5054797;28;20184;-66
2022/10/09 05:26:07;;;;;;;1999.90;999.90;;;;;;;7.65;100.00;95156.59;5054783;28;20183;-67
2022/10/09 05:28:33;;;;;;;1999.90;999.90;;;;;;;7.66;100.00;95155.47;5054643;28;20192;-67
2022/10/09 05:30:59;;;;;;;1999.90;999.90;;;;;;;7.72;100.00;95156.59;5054831;28;20181;-56
2022/10/09 05:33:24;;;;;;;1999.90;999.90;;;;;;;7.77;100.00;95161.66;5054740;28;20176;-66
2022/10/09 05:35:55;;;;;;;1999.90;999.90;;;;;;;7.90;100.00;95164.75;5054852;28;20188;-67
2022/10/09 05:38:22;;;;;;;1999.90;999.90;;;;;;;7.95;100.00;95161.63;5055076;28;20249;-67
2022/10/09 05:41:04;;;;;;;1999.90;999.90;;;;;;;8.02;100.00;95150.72;5054237;28;20228;-67
2022/10/09 05:43:32;;;;;;;1999.90;999.90;;;;;;;8.01;100.00;95160.06;5055064;28;20175;-67
2022/10/09 05:46:09;;;;;;;1999.90;999.90;;;;;;;8.03;100.00;95166.66;5054190;28;20224;-67
2022/10/09 05:48:36;;;;;;;1999.90;999.90;;;;;;;8.12;100.00;95169.72;5054795;28;20248;-66
2022/10/09 05:51:19;;;;;;;1999.90;999.90;;;;;;;8.15;100.00;95171.66;5054094;28;20206;-63
2022/10/09 05:53:46;;;;;;;1999.90;999.90;;;;;;;8.21;100.00;95159.25;5054890;28;20178;-58
2022/10/09 05:56:16;;;;;;;1999.90;999.90;;;;;;;8.19;100.00;95164.28;5054695;28;20180;-58
2022/10/09 05:58:43;;;;;;;1999.90;999.90;;;;;;;8.18;100.00;95170.88;5053863;28;20184;-59
2022/10/09 06:01:08;;;;;;;1999.90;999.90;;;;;;;8.22;100.00;95176.34;5054141;28;20268;-58
2022/10/09 06:03:35;;;;;;;1999.90;999.90;;;;;;;8.24;100.00;95180.25;5054155;28;20232;-59
2022/10/09 06:06:06;;;;;;;1999.90;999.90;;;;;;;8.26;100.00;95177.88;5054520;28;20188;-58
2022/10/09 06:08:37;;;;;;;1999.90;999.90;;;;;;;8.36;100.00;95182.53;5054570;28;20184;-68
2022/10/09 06:11:16;;;;;;;1999.90;999.90;;;;;;;8.28;100.00;95186.44;5054569;28;20215;-58
2022/10/09 06:13:42;;;;;;;1999.90;999.90;;;;;;;8.32;100.00;95191.84;5054482;28;20177;-58
2022/10/09 06:16:10;;;;;;;1999.90;999.90;;;;;;;8.47;100.00;95190.63;5053987;28;20180;-58
2022/10/09 06:18:36;;;;;;;1999.90;999.90;;;;;;;8.42;100.00;95194.53;5053943;28;20202;-58
2022/10/09 06:21:02;;;;;;;1999.90;999.90;;;;;;;8.54;100.00;95191.41;5053804;28;20180;-59
2022/10/09 06:23:28;;;;;;;1999.90;999.90;;;;;;;8.68;100.00;95187.84;5053677;28;20219;-56
2022/10/09 06:25:56;;;;;;;1999.90;999.90;;;;;;;8.62;100.00;95201.09;5070287;28;20177;-68
2022/10/09 06:28:21;;;;;;;1999.90;999.90;;;;;;;8.70;100.00;95205.31;5053833;28;20327;-60
2022/10/09 06:30:48;;;;;;;1999.90;999.90;;;;;;;8.78;100.00;95208.81;5053548;28;20211;-59
2022/10/09 06:33:13;;;;;;;1999.90;999.90;;;;;;;8.87;100.00;95209.91;5053424;28;20269;-60
2022/10/09 06:35:38;;;;;;;1999.90;999.90;;;;;;;8.96;100.00;95223.88;5054156;28;20201;-59
2022/10/09 06:38:04;;;;;;;1999.90;999.90;;;;;;;9.03;100.00;95226.56;5053651;28;20261;-59
2022/10/09 06:40:29;;;;;;;1999.90;999.90;;;;;;;8.86;100.00;95238.31;5053532;28;20240;-59
2022/10/09 06:42:54;;;;;;;1999.90;999.90;;;;;;;9.10;100.00;95237.41;5053642;28;20185;-58
2022/10/09 06:45:20;;;;;;;1999.90;999.90;;;;;;;9.13;100.00;95246.75;5054041;28;20362;-60
2022/10/09 06:47:45;;;;;;;1999.90;999.90;;;;;;;9.27;100.00;95247.44;5053579;28;20177;-65
2022/10/09 06:50:10;;;;;;;1999.90;999.90;;;;;;;9.12;100.00;95254.16;5053586;28;20181;-66
2022/10/09 06:52:36;;;;;;;1999.90;999.90;;;;;;;9.40;100.00;95251.25;5053293;28;20205;-65
2022/10/09 06:55:01;;;;;;;1999.90;999.90;;;;;;;9.48;100.00;95252.75;5053322;28;20206;-66
2022/10/09 06:57:26;;;;;;;1999.90;999.90;;;;;;;9.40;100.00;95255.94;5056682;28;20289;-65
2022/10/09 06:59:52;;;;;;;1999.90;999.90;;;;;;;9.63;100.00;95256.97;5057625;28;20176;-66
2022/10/09 07:02:17;;;;;;;1999.90;999.90;;;;;;;9.82;100.00;95267.34;5057740;28;20245;-65
2022/10/09 07:04:43;;;;;;;1999.90;999.90;;;;;;;9.83;100.00;95263.44;5057430;28;20190;-61
2022/10/09 07:07:08;;;;;;;1999.90;999.90;;;;;;;9.77;100.00;95275.94;5057441;28;20173;-58
2022/10/09 07:09:33;;;;;;;1999.90;999.90;;;;;;;9.94;100.00;95269.56;5057369;28;20265;-59
2022/10/09 07:11:59;;;;;;;1999.90;999.90;;;;;;;9.69;100.00;95282.59;5057561;28;20181;-58
2022/10/09 07:14:24;;;;;;;1999.90;999.90;;;;;;;9.78;100.00;95288.41;5057545;28;20175;-58
2022/10/09 07:16:50;;;;;;;1999.90;999.90;;;;;;;9.83;100.00;95287.97;5057669;28;20261;-58
2022/10/09 07:19:17;;;;;;;1999.90;999.90;;;;;;;9.99;100.00;95287.47;5056753;28;20185;-59
2022/10/09 07:21:45;;;;;;;1999.90;999.90;;;;;;;10.29;100.00;95284.13;5057103;28;20220;-58
2022/10/09 07:24:11;;;;;;;1999.90;999.90;;;;;;;10.42;100.00;95294.16;5056858;28;20174;-58
2022/10/09 07:26:39;;;;;;;1999.90;999.90;;;;;;;10.37;100.00;95302.00;5057686;28;20177;-65
2022/10/09 07:29:06;;;;;;;1999.90;999.90;;;;;;;10.49;100.00;95296.78;5056800;28;20170;-65
2022/10/09 07:31:32;;;;;;;1999.90;999.90;;;;;;;10.68;100.00;95300.91;5057077;28;20178;-66
2022/10/09 07:33:57;;;;;;;1999.90;999.90;;;;;;;10.88;100.00;95288.97;5056636;28;20188;-69
2022/10/09 07:36:23;;;;;;;1999.90;999.90;;;;;;;11.05;100.00;95300.88;5057258;28;20172;-67
2022/10/09 07:38:56;;;;;;;1999.90;999.90;;;;;;;11.20;100.00;95299.53;5056701;28;20180;-64
2022/10/09 07:41:23;;;;;;;1999.90;999.90;;;;;;;11.45;100.00;95289.06;5056682;28;20239;-67
2022/10/09 07:43:49;;;;;;;1999.90;999.90;;;;;;;11.49;100.00;95290.56;5056534;28;20224;-58
2022/10/09 07:46:17;;;;;;;1999.90;999.90;;;;;;;11.53;100.00;95298.72;5056671;28;20223;-58
2022/10/09 07:48:42;;;;;;;1999.90;999.90;;;;;;;11.50;100.00;95305.00;5056720;28;20265;-58
2022/10/09 07:51:09;;;;;;;1999.90;999.90;;;;;;;11.45;100.00;95300.00;5056518;28;20216;-59
2022/10/09 07:53:35;;;;;;;1999.90;999.90;;;;;;;11.56;100.00;95297.91;5056417;28;20268;-59
2022/10/09 07:56:00;;;;;;;1999.90;999.90;;;;;;;11.85;100.00;95307.28;5056269;28;20221;-60
2022/10/09 07:58:25;;;;;;;1999.90;999.90;;;;;;;12.30;100.00;95278.41;5056374;28;20234;-57
2022/10/09 08:00:51;;;;;;;1999.90;999.90;;;;;;;12.44;100.00;95286.41;5056242;28;20213;-61
2022/10/09 08:03:16;;;;;;;1999.90;999.90;;;;;;;12.28;100.00;95286.28;5056547;28;20271;-58
2022/10/09 08:05:41;;;;;;;1999.90;999.90;;;;;;;12.74;100.00;95275.28;5055896;28;20219;-58
2022/10/09 08:08:07;;;;;;;1999.90;999.90;;;;;;;12.98;100.00;95263.13;5056246;28;20189;-58
2022/10/09 08:10:33;;;;;;;1999.90;999.90;;;;;;;13.07;100.00;95257.84;5056172;28;20173;-58
2022/10/09 08:12:58;;;;;;;1999.90;999.90;;;;;;;12.84;100.00;95258.66;5055883;28;20174;-59
2022/10/09 08:15:24;;;;;;;1999.90;999.90;;;;;;;13.03;100.00;95265.38;5056898;28;20174;-60
2022/10/09 08:17:54;;;;;;;1999.90;999.90;;;;;;;12.86;100.00;95255.50;5056171;28;20229;-65
2022/10/09 08:20:19;;;;;;;1999.90;999.90;;;;;;;13.19;100.00;95274.44;5055924;28;20192;-60
2022/10/09 08:22:45;;;;;;;1999.90;999.90;;;;;;;13.34;100.00;95256.47;5056756;28;20177;-59
2022/10/09 08:25:10;;;;;;;1999.90;999.90;;;;;;;13.22;100.00;95253.59;5056648;28;20181;-58
2022/10/09 08:27:35;;;;;;;1999.90;999.90;;;;;;;13.62;100.00;95241.38;5056496;28;20174;-58
2022/10/09 08:30:01;;;;;;;1999.90;999.90;;;;;;;13.43;100.00;95246.94;5055411;28;20192;-58
2022/10/09 08:32:26;;;;;;;1999.90;999.90;;;;;;;13.50;100.00;95250.28;5056033;28;20170;-58
2022/10/09 08:34:51;;;;;;;1999.90;999.90;;;;;;;13.40;100.00;95250.53;5055792;28;20530;-68
2022/10/09 08:37:17;;;;;;;1999.90;999.90;;;;;;;13.08;100.00;95256.66;5055923;28;20198;-59
2022/10/09 08:39:42;;;;;;;1999.90;999.90;;;;;;;12.96;100.00;95257.25;5056223;28;20235;-70
2022/10/09 08:42:22;;;;;;;1999.90;999.90;;;;;;;12.97;100.00;95272.53;5056244;28;20205;-67
2022/10/09 08:44:48;;;;;;;1999.90;999.90;;;;;;;12.87;100.00;95268.00;5055332;28;20225;-69
2022/10/09 08:47:36;;;;;;;1999.90;999.90;;;;;;;12.94;100.00;95278.84;5055473;28;20181;-67
2022/10/09 08:50:29;;;;;;;1999.90;999.90;;;;;;;13.25;100.00;95271.97;5055714;28;20170;-68
2022/10/09 08:53:03;;;;;;;1999.90;999.90;;;;;;;13.45;100.00;95260.97;5050833;28;20284;-60
2022/10/09 08:55:34;;;;;;;1999.90;999.90;;;;;;;12.85;100.00;95275.88;5055351;28;20161;-58
2022/10/09 08:58:04;;;;;;;1999.90;999.90;;;;;;;12.95;100.00;95272.16;5055814;28;20248;-59
2022/10/09 09:00:43;;;;;;;1999.90;999.90;;;;;;;12.90;100.00;95267.19;5055561;28;20173;-60
2022/10/09 09:03:27;;;;;;;1999.90;999.90;;;;;;;12.99;100.00;95264.66;5055183;28;20169;-58
2022/10/09 09:06:20;;;;;;;1999.90;999.90;;;;;;;13.35;100.00;95268.25;5055155;28;20172;-58
2022/10/09 09:09:12;;;;;;;1999.90;999.90;;;;;;;13.20;100.00;95261.50;5054836;28;20174;-60
2022/10/09 09:11:53;;;;;;;1999.90;999.90;;;;;;;13.63;100.00;95248.44;5036101;28;20185;-65
2022/10/09 09:14:44;;;;;;;1999.90;999.90;;;;;;;13.62;100.00;95244.13;5055460;28;20169;-59
2022/10/09 09:17:48;;;;;;;1999.90;999.90;;;;;;;13.79;100.00;95240.22;5054862;28;20190;-65
2022/10/09 09:20:24;;;;;;;1999.90;999.90;;;;;;;13.82;100.00;95227.59;5021172;28;20190;-65
2022/10/09 09:22:50;;;;;;;1999.90;999.90;;;;;;;13.45;100.00;95248.03;5055413;28;20169;-67
2022/10/09 09:25:30;;;;;;;1999.90;999.90;;;;;;;13.62;100.00;95238.63;5054829;28;20188;-69
2022/10/09 09:28:11;;;;;;;1999.90;999.90;;;;;;;13.73;100.00;95252.88;5054789;28;20585;-61
2022/10/09 09:30:43;;;;;;;1999.90;999.90;;;;;;;13.90;100.00;95245.44;5055411;28;20171;-61
2022/10/09 09:33:21;;;;;;;1999.90;999.90;;;;;;;13.91;100.00;95242.28;5054664;28;20173;-76
2022/10/09 09:36:15;;;;;;;1999.90;999.90;;;;;;;14.29;100.00;95235.13;5054218;28;20166;-78
2022/10/09 09:38:41;;;;;;;1999.90;999.90;;;;;;;13.88;100.00;95232.16;5055000;28;20539;-76
2022/10/09 09:41:06;;;;;;;1999.90;999.90;;;;;;;13.85;100.00;95246.75;5054888;28;20208;-71
2022/10/09 09:43:31;;;;;;;1999.90;999.90;;;;;;;13.91;100.00;95242.28;5054414;28;20214;-66
2022/10/09 09:45:59;;;;;;;1999.90;999.90;;;;;;;13.86;100.00;95245.53;5054148;28;20222;-74
2022/10/09 09:48:24;;;;;;;1999.90;999.90;;;;;;;13.75;100.00;95245.00;5054761;28;20182;-59
2022/10/09 09:50:52;;;;;;;1999.90;999.90;;;;;;;13.84;100.00;95242.44;5054319;28;20173;-60
2022/10/09 09:53:36;;;;;;;1999.90;999.90;;;;;;;13.91;100.00;95236.78;5054166;28;20248;-65
2022/10/09 09:56:02;;;;;;;1999.90;999.90;;;;;;;13.42;100.00;95237.91;5054897;28;20288;-65
2022/10/09 09:58:43;;;;;;;1999.90;999.90;;;;;;;13.68;100.00;95250.66;5054530;28;20198;-65
2022/10/09 10:01:29;;;;;;;1999.90;999.90;;;;;;;13.53;100.00;95249.44;5054820;28;20166;-65
2022/10/09 10:03:58;;;;;;;1999.90;999.90;;;;;;;13.79;100.00;95244.91;5054442;28;20194;-65
2022/10/09 10:06:29;;;;;;;1999.90;999.90;;;;;;;13.93;100.00;95234.41;5054251;28;20193;-65
2022/10/09 10:09:12;;;;;;;1999.90;999.90;;;;;;;13.93;100.00;95236.38;5054422;28;20166;-66
2022/10/09 10:11:43;;;;;;;1999.90;999.90;;;;;;;14.01;100.00;95235.78;5054425;28;20162;-66
2022/10/09 10:14:13;;;;;;;1999.90;999.90;;;;;;;14.17;100.00;95224.03;5054223;28;20170;-67
2022/10/09 10:16:39;;;;;;;1999.90;999.90;;;;;;;14.52;100.00;95237.66;5053720;28;20180;-67
2022/10/09 10:19:05;;;;;;;1999.90;999.90;;;;;;;14.16;100.00;95234.22;5054201;28;20170;-67
2022/10/09 10:21:45;;;;;;;1999.90;999.90;;;;;;;14.37;100.00;95220.00;5053800;28;20205;-64
2022/10/09 10:24:17;;;;;;;1999.90;999.90;;;;;;;14.67;100.00;95221.56;5054430;28;20174;-65
2022/10/09 10:26:50;;;;;;;1999.90;999.90;;;;;;;14.34;100.00;95215.34;5054249;28;20162;-89
2022/10/09 10:29:27;;;;;;;1999.90;999.90;;;;;;;14.38;100.00;95210.53;5053709;28;20209;-60
2022/10/09 10:32:04;;;;;;;1999.90;999.90;;;;;;;14.30;100.00;95209.19;5053117;28;20231;-61
2022/10/09 10:34:52;;;;;;;1999.90;999.90;;;;;;;14.49;100.00;95213.03;5054123;28;20170;-58
2022/10/09 10:37:23;;;;;;;1999.90;999.90;;;;;;;14.60;100.00;95205.28;5054023;28;20236;-61
2022/10/09 10:40:06;;;;;;;1999.90;999.90;;;;;;;14.95;100.00;95194.06;5053465;28;20170;-59
2022/10/09 10:42:57;;;;;;;1999.90;999.90;;;;;;;15.02;100.00;95187.59;5053358;28;20232;-60
2022/10/09 10:45:33;;;;;;;1999.90;999.90;;;;;;;14.79;100.00;95196.09;5054089;28;20315;-73
2022/10/09 10:48:01;;;;;;;1999.90;999.90;;;;;;;14.47;100.00;95198.94;5054028;28;20268;-62
2022/10/09 10:50:35;;;;;;;1999.90;999.90;;;;;;;14.74;100.00;95202.13;5053382;28;20169;-60
2022/10/09 10:53:07;;;;;;;1999.90;999.90;;;;;;;14.50;100.00;95201.56;5053428;28;20169;-61
2022/10/09 10:55:50;;;;;;;1999.90;999.90;;;;;;;14.77;100.00;95204.00;5053716;28;20174;-61
2022/10/09 10:58:23;;;;;;;1999.90;999.90;;;;;;;14.63;100.00;95209.88;5053814;28;20210;-60
2022/10/09 11:01:00;;;;;;;1999.90;999.90;;;;;;;14.61;100.00;95206.81;5053980;28;20174;-61
2022/10/09 11:03:47;;;;;;;1999.90;999.90;;;;;;;14.71;100.00;95190.03;5053187;28;20222;-59